Time;durP1;ratioP1;P1;durP2;ratioP2;P2;SDS_P1;SDS_P2;PMS_P1;PMS_P2;Temp;Humidity;BMP_temperature;BMP_pressure;BME280_temperature;BME280_humidity;BME280_pressure;Samples;Min_cycle;Max_cycle;Signal;HPM_P1;HPM_P2
2021/03/06 00:01:02;;;;;;;7.40;5.07;;;0.80;67.00;;;1.46;57.32;98892.81;5004332;28;20378;-35
2021/03/06 00:03:30;;;;;;;5.80;3.50;;;0.90;66.80;;;1.46;57.01;98894.59;5004838;28;20354;-35
2021/03/06 00:05:58;;;;;;;7.00;3.63;;;0.80;66.40;;;1.46;56.90;98887.56;5004108;28;20077;-35
2021/03/06 00:08:26;;;;;;;8.40;4.20;;;0.90;66.50;;;1.46;57.63;98894.59;5004430;28;20030;-35
2021/03/06 00:10:55;;;;;;;8.03;4.63;;;0.90;66.10;;;1.45;56.92;98892.88;5004009;28;20245;-35
2021/03/06 00:13:24;;;;;;;7.57;4.27;;;0.80;65.70;;;1.44;57.24;98896.44;5003445;28;20243;-35
2021/03/06 00:15:54;;;;;;;7.70;3.83;;;0.80;65.70;;;1.45;57.32;98892.88;4987498;28;20050;-36
2021/03/06 00:18:22;;;;;;;10.57;4.07;;;0.80;65.60;;;1.42;56.43;98888.63;5004354;28;20239;-35
2021/03/06 00:20:50;;;;;;;6.67;4.03;;;0.80;65.30;;;1.41;56.48;98881.66;5004122;28;20072;-36
2021/03/06 00:23:18;;;;;;;5.17;3.27;;;0.80;65.00;;;1.42;56.22;98885.16;5003851;28;20050;-35
2021/03/06 00:25:45;;;;;;;5.13;3.10;;;0.80;65.20;;;1.43;56.19;98881.59;5004258;28;20048;-36
2021/03/06 00:28:13;;;;;;;6.03;3.10;;;0.80;65.10;;;1.44;57.06;98892.03;5004245;28;20049;-36
2021/03/06 00:30:41;;;;;;;7.57;3.10;;;0.90;65.30;;;1.45;56.79;98891.09;5004107;28;20057;-35
2021/03/06 00:33:09;;;;;;;8.40;3.83;;;0.90;64.80;;;1.48;56.86;98892.75;5003102;28;20046;-35
2021/03/06 00:35:36;;;;;;;6.93;3.77;;;0.90;64.70;;;1.45;56.31;98888.47;5004141;28;20053;-35
2021/03/06 00:38:04;;;;;;;6.73;4.10;;;0.90;64.50;;;1.45;56.17;98892.88;4986204;28;20054;-35
2021/03/06 00:40:31;;;;;;;5.80;3.57;;;0.80;64.70;;;1.44;55.90;98888.56;5003992;28;20060;-35
2021/03/06 00:42:59;;;;;;;5.90;3.97;;;0.80;64.80;;;1.41;56.41;98900.03;5003578;28;20225;-36
2021/03/06 00:45:26;;;;;;;8.93;4.07;;;0.80;65.00;;;1.42;56.93;98903.53;5003279;28;20056;-35
2021/03/06 00:47:54;;;;;;;7.13;3.57;;;0.80;65.10;;;1.41;56.08;98894.78;5003886;28;20255;-35
2021/03/06 00:50:36;;;;;;;8.40;4.00;;;0.90;64.80;;;1.42;56.70;98898.28;5003965;28;20096;-35
2021/03/06 00:53:08;;;;;;;6.73;3.90;;;0.90;64.30;;;1.41;56.41;98892.16;4985876;28;20050;-36
2021/03/06 00:55:35;;;;;;;5.20;3.33;;;0.80;64.70;;;1.41;55.97;98901.81;5003705;28;20054;-35
2021/03/06 00:58:03;;;;;;;6.40;3.30;;;0.80;64.90;;;1.39;55.89;98891.38;4986237;28;20061;-35
2021/03/06 01:00:31;;;;;;;4.87;3.33;;;0.80;64.70;;;1.38;56.63;98890.53;4973981;28;20046;-36
2021/03/06 01:03:03;;;;;;;7.30;3.87;;;0.80;64.40;;;1.37;56.55;98888.00;4997552;28;20046;-35
2021/03/06 01:05:31;;;;;;;6.07;3.47;;;0.80;64.60;;;1.34;56.41;98890.78;5003400;28;20047;-35
2021/03/06 01:07:58;;;;;;;7.00;4.00;;;0.70;64.80;;;1.30;56.57;98889.19;5003292;28;20052;-35
2021/03/06 01:10:30;;;;;;;6.43;3.77;;;0.70;64.70;;;1.27;55.62;98886.72;5003330;28;20050;-35
2021/03/06 01:12:57;;;;;;;8.17;3.97;;;0.60;64.70;;;1.25;55.63;98880.72;5003035;28;20065;-35
2021/03/06 01:15:25;;;;;;;5.87;3.83;;;0.70;64.90;;;1.24;56.03;98879.00;5002944;28;20060;-36
2021/03/06 01:17:52;;;;;;;7.67;4.00;;;0.60;65.40;;;1.23;56.32;98875.53;5002941;28;20060;-35
2021/03/06 01:20:20;;;;;;;5.33;3.63;;;0.60;64.90;;;1.23;55.68;98878.16;5003207;28;20052;-35
2021/03/06 01:22:48;;;;;;;7.03;3.60;;;0.60;64.50;;;1.23;56.03;98882.56;4985118;28;20058;-35
2021/03/06 01:25:16;;;;;;;5.43;3.40;;;0.70;64.70;;;1.22;55.93;98879.06;4985907;28;20052;-35
2021/03/06 01:27:44;;;;;;;7.73;4.87;;;0.60;64.90;;;1.20;56.59;98880.06;5002960;28;20080;-35
2021/03/06 01:30:12;;;;;;;8.27;4.40;;;0.60;64.90;;;1.18;56.51;98873.13;4986051;28;20098;-35
2021/03/06 01:32:40;;;;;;;7.57;4.97;;;0.60;64.80;;;1.16;56.43;98881.97;5001261;28;20293;-35
2021/03/06 01:35:10;;;;;;;7.20;4.43;;;0.50;65.10;;;1.12;56.13;98876.03;5001722;28;20061;-35
2021/03/06 01:37:40;;;;;;;8.90;4.80;;;0.50;65.00;;;1.11;55.98;98873.50;5003052;28;20060;-35
2021/03/06 01:40:14;;;;;;;10.80;5.27;;;0.50;65.10;;;1.09;55.79;98881.44;5003076;28;20049;-35
2021/03/06 01:42:41;;;;;;;12.07;7.18;;;0.50;65.40;;;1.07;56.02;98878.03;5002228;28;20340;-35
2021/03/06 01:45:10;;;;;;;19.37;9.70;;;0.40;64.90;;;1.05;56.39;98877.25;5002912;28;20052;-35
2021/03/06 01:47:39;;;;;;;16.37;7.70;;;0.40;64.60;;;1.03;55.71;98875.59;5002906;28;20056;-35
2021/03/06 01:50:09;;;;;;;11.30;6.20;;;0.40;65.00;;;1.03;56.04;98883.47;5001985;28;20065;-35
2021/03/06 01:52:37;;;;;;;11.87;6.00;;;0.40;65.30;;;0.98;56.07;98874.03;4985224;28;20055;-35
2021/03/06 01:55:06;;;;;;;11.87;5.77;;;0.40;65.00;;;0.97;56.07;98871.53;4996762;28;20078;-35
2021/03/06 01:57:34;;;;;;;13.13;5.97;;;0.30;64.90;;;0.94;55.46;98866.41;4993804;28;20050;-36
2021/03/06 02:00:03;;;;;;;6.70;4.27;;;0.30;64.80;;;0.92;55.79;98870.88;4998043;28;20047;-35
2021/03/06 02:02:40;;;;;;;7.43;3.83;;;0.30;64.80;;;0.91;56.04;98870.03;4983125;28;20048;-35
2021/03/06 02:05:08;;;;;;;10.80;5.30;;;0.30;65.20;;;0.91;55.56;98872.66;4997548;28;20041;-36
2021/03/06 02:07:36;;;;;;;14.47;6.40;;;0.30;65.20;;;0.89;55.69;98866.63;4999258;28;20050;-35
2021/03/06 02:10:04;;;;;;;8.53;4.80;;;0.30;65.10;;;0.88;55.87;98866.69;4997567;28;20249;-35
2021/03/06 02:13:04;;;;;;;9.57;5.60;;;0.30;65.00;;;0.82;55.55;98865.19;4982188;28;20237;-35
2021/03/06 02:16:01;;;;;;;11.63;5.63;;;0.20;65.50;;;0.80;56.38;98863.59;4979422;28;20156;-35
2021/03/06 02:19:17;;;;;;;7.77;4.47;;;0.20;65.70;;;0.72;56.51;98859.53;4989805;28;20370;-35
2021/03/06 02:22:11;;;;;;;10.30;5.23;;;0.10;65.70;;;0.67;55.58;98853.63;4965827;28;20064;-35
2021/03/06 02:25:41;;;;;;;12.68;5.35;;;0.00;65.70;;;0.63;56.02;98846.00;4989333;28;20053;-35
2021/03/06 02:28:50;;;;;;;16.70;8.77;;;0.00;66.00;;;0.57;55.49;98849.72;4988357;28;20062;-35
2021/03/06 02:31:20;;;;;;;14.73;8.47;;;-0.10;65.90;;;0.51;55.66;98848.25;4945510;28;20237;-35
2021/03/06 02:34:11;;;;;;;15.87;7.17;;;-0.20;66.10;;;0.46;56.41;98847.59;4988942;28;20256;-35
2021/03/06 02:36:46;;;;;;;12.83;7.47;;;-0.20;66.30;;;0.42;56.22;98846.03;4987954;28;20345;-35
2021/03/06 02:39:17;;;;;;;16.07;7.17;;;-0.20;66.50;;;0.38;56.40;98850.53;4988333;28;20046;-35
2021/03/06 02:41:48;;;;;;;12.00;6.27;;;-0.30;66.60;;;0.35;56.07;98858.56;4988245;28;20042;-35
2021/03/06 02:44:18;;;;;;;9.30;5.53;;;-0.40;66.50;;;0.32;56.44;98855.22;4971046;28;20051;-35
2021/03/06 02:46:47;;;;;;;14.07;6.77;;;-0.30;66.80;;;0.31;56.63;98856.13;4988139;28;20050;-35
2021/03/06 02:49:14;;;;;;;16.97;9.33;;;-0.40;67.00;;;0.28;56.49;98853.66;4989228;28;20043;-35
2021/03/06 02:51:43;;;;;;;13.60;7.33;;;-0.40;66.50;;;0.24;56.10;98855.56;4989028;28;20356;-35
2021/03/06 02:54:11;;;;;;;10.33;5.10;;;-0.40;66.70;;;0.22;56.14;98852.16;4988821;28;20348;-36
2021/03/06 02:56:39;;;;;;;6.77;3.87;;;-0.40;66.80;;;0.19;56.35;98847.91;4988706;28;20057;-35
2021/03/06 02:59:49;;;;;;;11.83;5.07;;;-0.40;66.70;;;0.18;56.91;98846.19;4988001;28;20061;-35
2021/03/06 03:02:57;;;;;;;4.87;3.17;;;-0.40;67.00;;;0.14;56.04;98843.78;4988814;28;20051;-35
2021/03/06 03:05:59;;;;;;;16.53;7.73;;;-0.50;66.80;;;0.10;56.15;98840.44;4959697;28;20066;-35
2021/03/06 03:08:36;;;;;;;18.00;10.07;;;-0.60;67.00;;;0.08;56.69;98841.41;4985418;28;20047;-35
2021/03/06 03:11:09;;;;;;;15.20;7.40;;;-0.60;66.80;;;0.04;56.72;98847.69;4984879;28;20077;-35
2021/03/06 03:13:40;;;;;;;15.83;8.60;;;-0.60;67.00;;;0.03;56.87;98843.38;4984388;28;20046;-35
2021/03/06 03:16:40;;;;;;;11.57;5.97;;;-0.60;67.20;;;-0.01;56.20;98842.66;4986033;28;20053;-35
2021/03/06 03:19:34;;;;;;;8.93;4.50;;;-0.70;67.10;;;-0.04;56.20;98842.78;4965591;28;20160;-35
2021/03/06 03:22:05;;;;;;;8.40;4.23;;;-0.70;67.10;;;-0.08;56.52;98839.47;4985879;28;20050;-35
2021/03/06 03:24:39;;;;;;;6.93;4.07;;;-0.80;67.20;;;-0.12;56.66;98837.88;4983830;28;20310;-35
2021/03/06 03:27:11;;;;;;;7.70;4.47;;;-0.80;68.00;;;-0.15;56.39;98837.19;4968654;28;20352;-35
2021/03/06 03:29:40;;;;;;;10.17;4.70;;;-0.80;67.40;;;-0.17;56.91;98839.00;4984760;28;20088;-36
2021/03/06 03:32:11;;;;;;;7.70;4.73;;;-0.80;67.50;;;-0.18;56.80;98839.91;4984540;28;20348;-36
2021/03/06 03:34:40;;;;;;;10.03;4.97;;;-0.80;67.50;;;-0.21;56.83;98841.75;4985765;28;20046;-35
2021/03/06 03:37:10;;;;;;;6.27;4.03;;;-0.80;67.20;;;-0.21;56.73;98851.38;4985682;28;20264;-35
2021/03/06 03:39:39;;;;;;;6.30;4.47;;;-0.90;67.20;;;-0.25;56.92;98840.19;4984457;28;20047;-35
2021/03/06 03:42:07;;;;;;;9.37;3.90;;;-0.90;67.40;;;-0.28;56.85;98857.78;4985658;28;20059;-35
2021/03/06 03:44:36;;;;;;;8.00;4.53;;;-0.90;67.50;;;-0.30;56.43;98843.91;4985289;28;20050;-35
2021/03/06 03:47:04;;;;;;;5.77;4.10;;;-0.90;67.50;;;-0.33;56.50;98862.34;4985492;28;20059;-35
2021/03/06 03:49:33;;;;;;;7.53;4.90;;;-1.00;67.50;;;-0.34;56.56;98861.50;4983971;28;20076;-35
2021/03/06 03:52:01;;;;;;;6.80;4.70;;;-1.00;67.10;;;-0.36;56.42;98855.47;4984537;28;20053;-35
2021/03/06 03:54:29;;;;;;;9.17;4.73;;;-1.00;67.00;;;-0.36;57.07;98854.63;4984747;28;20061;-35
2021/03/06 03:56:56;;;;;;;6.93;4.77;;;-1.00;67.00;;;-0.40;56.38;98862.59;4983636;28;20059;-35
2021/03/06 03:59:23;;;;;;;7.77;5.43;;;-1.00;66.90;;;-0.40;56.79;98862.59;4983699;28;20066;-35
2021/03/06 04:01:51;;;;;;;15.57;7.40;;;-1.00;66.90;;;-0.42;56.64;98864.41;4984934;28;20059;-35
2021/03/06 04:04:27;;;;;;;10.43;6.00;;;-1.00;67.10;;;-0.42;56.62;98874.88;4985009;28;20231;-35
2021/03/06 04:07:00;;;;;;;8.33;5.03;;;-1.10;67.20;;;-0.42;57.05;98868.81;4984972;28;20034;-35
2021/03/06 04:09:28;;;;;;;6.53;3.92;;;-1.10;67.00;;;-0.42;56.42;98869.66;4985039;28;20057;-35
2021/03/06 04:11:55;;;;;;;7.87;4.77;;;-1.10;66.80;;;-0.44;56.80;98862.78;4984818;28;20251;-35
2021/03/06 04:14:23;;;;;;;8.00;4.30;;;-1.10;66.90;;;-0.46;56.17;98875.94;4984530;28;20051;-35
2021/03/06 04:16:50;;;;;;;6.87;4.00;;;-1.10;67.00;;;-0.47;56.53;98881.22;4984829;28;20378;-35
2021/03/06 04:19:18;;;;;;;7.13;5.23;;;-1.10;66.90;;;-0.49;56.72;98878.66;4983197;28;20050;-35
2021/03/06 04:21:45;;;;;;;6.93;5.30;;;-1.10;66.70;;;-0.48;56.98;98880.38;4984736;28;20057;-35
2021/03/06 04:24:13;;;;;;;8.23;5.20;;;-1.10;66.60;;;-0.47;56.76;98873.38;4983128;28;20057;-35
2021/03/06 04:26:50;;;;;;;7.33;5.60;;;-1.10;66.80;;;-0.48;56.38;98874.31;4984416;28;20336;-35
2021/03/06 04:29:21;;;;;;;7.23;5.60;;;-1.10;66.60;;;-0.51;56.83;98877.88;4984480;28;20047;-35
2021/03/06 04:31:49;;;;;;;10.30;5.50;;;-1.10;66.50;;;-0.52;56.50;98876.19;4984470;28;20349;-35
2021/03/06 04:34:17;;;;;;;8.97;5.17;;;-1.10;66.40;;;-0.54;56.34;98874.53;4982212;28;20042;-35
2021/03/06 04:36:44;;;;;;;5.53;4.73;;;-1.20;66.10;;;-0.56;56.24;98881.59;4983483;28;20047;-35
2021/03/06 04:39:12;;;;;;;7.87;3.60;;;-1.20;66.40;;;-0.58;56.27;98880.78;4984298;28;20244;-35
2021/03/06 04:41:39;;;;;;;5.37;3.40;;;-1.20;66.10;;;-0.61;56.53;98880.00;4984382;28;20055;-35
2021/03/06 04:44:08;;;;;;;7.00;4.93;;;-1.20;66.10;;;-0.61;56.55;98884.38;4984105;28;20248;-35
2021/03/06 04:46:36;;;;;;;8.97;5.33;;;-1.20;66.20;;;-0.61;56.15;98880.00;4984225;28;20039;-35
2021/03/06 04:49:03;;;;;;;8.77;4.50;;;-1.20;66.40;;;-0.60;56.55;98886.94;4984365;28;20052;-35
2021/03/06 04:51:31;;;;;;;5.20;3.70;;;-1.20;66.30;;;-0.59;56.29;98885.19;4984180;28;20324;-35
2021/03/06 04:53:59;;;;;;;4.17;2.93;;;-1.20;66.00;;;-0.62;56.07;98878.31;4983789;28;20049;-36
2021/03/06 04:56:26;;;;;;;6.63;3.87;;;-1.30;66.10;;;-0.63;56.63;98881.00;4984459;28;20058;-35
2021/03/06 04:58:54;;;;;;;7.30;3.50;;;-1.30;66.30;;;-0.66;56.61;98878.47;4983914;28;20058;-35
2021/03/06 05:01:21;;;;;;;6.50;4.13;;;-1.30;66.10;;;-0.67;56.57;98874.19;4984105;28;20232;-35
2021/03/06 05:03:49;;;;;;;5.87;3.70;;;-1.30;66.00;;;-0.68;56.58;98878.56;4983288;28;20064;-35
2021/03/06 05:06:16;;;;;;;6.47;3.43;;;-1.30;66.30;;;-0.69;56.24;98881.22;4983848;28;20047;-35
2021/03/06 05:08:44;;;;;;;5.97;3.60;;;-1.30;66.10;;;-0.71;56.39;98877.84;4983862;28;20051;-35
2021/03/06 05:11:11;;;;;;;5.77;3.37;;;-1.30;66.30;;;-0.72;56.59;98876.97;4983868;28;20068;-35
2021/03/06 05:13:38;;;;;;;6.17;4.27;;;-1.40;66.10;;;-0.74;56.33;98877.94;4983394;28;20038;-35
2021/03/06 05:16:06;;;;;;;4.57;3.60;;;-1.40;65.90;;;-0.75;56.13;98884.09;4983803;28;20247;-36
2021/03/06 05:18:34;;;;;;;6.43;4.20;;;-1.40;66.10;;;-0.76;56.56;98893.69;4983646;28;20046;-35
2021/03/06 05:21:01;;;;;;;6.77;4.70;;;-1.40;66.00;;;-0.77;56.35;98886.75;4983059;28;20280;-35
2021/03/06 05:23:29;;;;;;;5.50;4.13;;;-1.40;65.90;;;-0.78;56.50;98892.06;4983247;28;20236;-35
2021/03/06 05:25:56;;;;;;;8.77;4.33;;;-1.50;65.70;;;-0.82;56.36;98902.63;4966365;28;20055;-35
2021/03/06 05:28:24;;;;;;;4.97;3.40;;;-1.50;66.00;;;-0.88;55.97;98900.25;4983551;28;20301;-35
2021/03/06 05:30:52;;;;;;;8.90;3.73;;;-1.60;65.70;;;-0.91;56.61;98892.53;5006424;23;20038;-39
2021/03/06 05:33:21;;;;;;;6.50;3.67;;;-1.60;66.40;;;-0.92;56.60;98889.97;5014471;28;20239;-40
2021/03/06 05:35:48;;;;;;;5.77;3.63;;;-1.70;66.20;;;-0.96;56.24;98891.00;5022840;28;20049;-40
2021/03/06 05:38:16;;;;;;;6.00;3.83;;;-1.60;65.80;;;-1.00;56.07;98888.50;5022802;28;20365;-39
2021/03/06 05:40:47;;;;;;;9.13;5.77;;;-1.70;65.70;;;-1.02;56.20;98882.47;5022821;28;20250;-39
2021/03/06 05:43:16;;;;;;;7.17;4.77;;;-1.70;65.60;;;-1.03;56.25;98886.00;5022475;28;20045;-39
2021/03/06 05:45:46;;;;;;;7.10;4.13;;;-1.70;65.20;;;-1.04;55.85;98883.47;5022675;28;20250;-39
2021/03/06 05:48:17;;;;;;;7.87;4.63;;;-1.70;65.40;;;-1.04;56.34;98883.47;5022666;28;20046;-39
2021/03/06 05:50:46;;;;;;;6.50;4.17;;;-1.60;65.40;;;-1.04;56.12;98879.06;5022627;28;20053;-39
2021/03/06 05:53:15;;;;;;;7.20;4.33;;;-1.60;64.80;;;-1.03;56.10;98887.75;5021551;28;20050;-39
2021/03/06 05:55:48;;;;;;;8.20;4.73;;;-1.70;65.20;;;-1.05;56.17;98882.63;5022561;28;20050;-39
2021/03/06 05:58:17;;;;;;;6.50;3.97;;;-1.70;65.60;;;-1.05;55.96;98890.44;5005610;28;20068;-39
2021/03/06 06:00:45;;;;;;;5.40;3.77;;;-1.70;65.50;;;-1.04;56.17;98891.28;5019371;28;20062;-38
2021/03/06 06:03:16;;;;;;;4.90;3.90;;;-1.70;65.60;;;-1.04;56.36;98893.91;5022105;28;20054;-39
2021/03/06 06:05:46;;;;;;;6.30;3.77;;;-1.60;65.70;;;-1.04;56.27;98889.53;5022552;28;20058;-39
2021/03/06 06:08:15;;;;;;;6.77;5.80;;;-1.60;65.60;;;-1.04;56.41;98892.13;5005175;28;20068;-39
2021/03/06 06:10:43;;;;;;;8.83;5.80;;;-1.60;65.10;;;-1.05;56.05;98885.22;5005127;28;20056;-39
2021/03/06 06:13:13;;;;;;;7.20;4.57;;;-1.70;64.80;;;-1.10;55.42;98894.16;5021384;28;20053;-39
2021/03/06 06:15:40;;;;;;;6.03;4.27;;;-1.80;65.20;;;-1.13;55.88;98896.88;5022354;28;20080;-39
2021/03/06 06:18:08;;;;;;;8.17;4.30;;;-1.80;65.60;;;-1.15;55.76;98889.06;5005306;28;20355;-39
2021/03/06 06:20:39;;;;;;;5.63;4.00;;;-1.80;65.40;;;-1.14;56.20;98892.53;5022465;28;20042;-39
2021/03/06 06:23:17;;;;;;;8.60;4.37;;;-1.80;65.40;;;-1.12;56.29;98888.13;5021312;28;20057;-39
2021/03/06 06:25:47;;;;;;;9.07;3.83;;;-1.70;65.80;;;-1.11;56.29;98890.66;5022313;28;20049;-39
2021/03/06 06:28:18;;;;;;;9.23;5.20;;;-1.70;66.10;;;-1.08;56.18;98889.72;5020713;28;20068;-39
2021/03/06 06:31:18;;;;;;;13.00;7.80;;;-1.70;66.00;;;-1.08;56.31;98893.16;5022278;28;20049;-39
2021/03/06 06:33:46;;;;;;;15.33;7.87;;;-1.60;65.30;;;-1.05;56.31;98894.81;4968205;28;20053;-39
2021/03/06 06:36:39;;;;;;;11.47;6.90;;;-1.60;65.70;;;-1.03;56.42;98896.47;5022406;28;20053;-39
2021/03/06 06:39:10;;;;;;;7.53;4.90;;;-1.50;65.70;;;-0.99;56.43;98899.78;5022012;28;20057;-39
2021/03/06 06:41:58;;;;;;;10.00;4.80;;;-1.60;65.50;;;-0.97;56.49;98903.19;5022221;28;20054;-39
2021/03/06 06:44:29;;;;;;;5.10;4.10;;;-1.50;65.30;;;-0.96;56.35;98902.31;5025241;28;20054;-39
2021/03/06 06:47:16;;;;;;;12.53;6.27;;;-1.50;65.80;;;-0.92;56.88;98897.81;5025777;28;20037;-39
2021/03/06 06:49:53;;;;;;;8.23;5.47;;;-1.40;65.60;;;-0.87;56.85;98911.56;5025818;28;20042;-39
2021/03/06 06:52:23;;;;;;;9.80;6.23;;;-1.40;65.60;;;-0.83;56.92;98910.53;5025394;28;20052;-38
2021/03/06 06:54:58;;;;;;;7.87;5.33;;;-1.30;65.70;;;-0.80;56.48;98898.19;5025616;28;20052;-38
2021/03/06 06:57:26;;;;;;;8.70;6.87;;;-1.30;65.30;;;-0.73;56.06;98908.41;5025494;28;20056;-37
2021/03/06 07:00:09;;;;;;;10.33;5.27;;;-1.20;65.20;;;-0.67;56.30;98916.03;5025577;28;20250;-39
2021/03/06 07:02:36;;;;;;;9.07;5.13;;;-1.20;64.80;;;-0.65;56.49;98919.44;5023158;28;20076;-38
2021/03/06 07:05:06;;;;;;;10.80;4.70;;;-1.10;65.00;;;-0.60;56.62;98918.34;5025414;28;20132;-38
2021/03/06 07:07:42;;;;;;;9.30;5.00;;;-1.10;64.90;;;-0.57;56.45;98914.75;5025292;28;20049;-38
2021/03/06 07:10:13;;;;;;;6.53;4.30;;;-1.00;65.00;;;-0.53;56.26;98920.72;5025041;28;20076;-38
2021/03/06 07:12:54;;;;;;;7.40;4.60;;;-1.00;65.30;;;-0.50;56.51;98928.44;5007470;28;20050;-38
2021/03/06 07:15:23;;;;;;;10.37;5.10;;;-1.00;65.40;;;-0.46;56.73;98919.56;5009329;28;20054;-38
2021/03/06 07:17:55;;;;;;;9.07;5.23;;;-0.90;65.10;;;-0.46;56.42;98928.25;5025219;28;20057;-38
2021/03/06 07:20:22;;;;;;;8.60;4.50;;;-1.00;65.20;;;-0.44;56.38;98936.91;5025258;28;20052;-38
2021/03/06 07:22:52;;;;;;;10.67;4.93;;;-0.90;65.50;;;-0.39;56.30;98941.94;5024670;28;20060;-38
2021/03/06 07:25:21;;;;;;;10.00;4.80;;;-0.90;65.70;;;-0.34;56.95;98933.91;5025154;28;20057;-38
2021/03/06 07:27:48;;;;;;;14.27;4.93;;;-0.90;65.60;;;-0.31;56.63;98942.50;5007784;28;20339;-38
2021/03/06 07:30:18;;;;;;;11.80;4.60;;;-0.80;65.40;;;-0.26;56.28;98947.53;5025088;28;20040;-38
2021/03/06 07:32:48;;;;;;;12.97;4.83;;;-0.70;64.90;;;-0.23;57.09;98945.66;5024500;28;20046;-38
2021/03/06 07:35:16;;;;;;;13.67;4.83;;;-0.70;65.10;;;-0.17;56.95;98946.34;5023355;28;20049;-38
2021/03/06 07:37:44;;;;;;;8.53;4.13;;;-0.60;64.90;;;-0.13;56.62;98955.75;5024186;28;20053;-39
2021/03/06 07:40:14;;;;;;;10.40;4.43;;;-0.60;64.60;;;-0.10;56.30;98948.59;5024705;28;20057;-38
2021/03/06 07:42:46;;;;;;;10.63;4.43;;;-0.50;64.60;;;-0.07;55.98;98945.88;5024163;28;20258;-38
2021/03/06 07:45:25;;;;;;;10.03;4.17;;;-0.50;64.60;;;-0.03;56.77;98957.94;5023800;28;20251;-38
2021/03/06 07:48:15;;;;;;;11.20;5.17;;;-0.40;64.50;;;0.02;56.18;98957.75;5024718;28;20060;-37
2021/03/06 07:50:47;;;;;;;5.13;3.63;;;-0.40;64.40;;;0.07;56.71;98955.78;5024724;28;20224;-38
2021/03/06 07:53:18;;;;;;;8.77;3.57;;;-0.30;64.30;;;0.12;56.68;98961.69;5024120;28;20054;-37
2021/03/06 07:55:47;;;;;;;6.90;3.80;;;-0.30;64.10;;;0.15;56.35;98960.69;5023685;28;20046;-38
2021/03/06 07:58:19;;;;;;;7.43;3.87;;;-0.20;64.00;;;0.20;56.44;98964.00;5007955;28;20056;-38
2021/03/06 08:01:22;;;;;;;8.33;4.33;;;-0.20;63.70;;;0.24;56.58;98955.09;5025250;28;20066;-37
2021/03/06 08:03:50;;;;;;;8.57;4.47;;;-0.10;63.80;;;0.29;56.11;98963.63;5036653;28;20057;-38
2021/03/06 08:06:29;;;;;;;9.60;4.87;;;0.00;63.60;;;0.35;56.45;98973.84;5016282;28;20056;-40
2021/03/06 08:09:10;;;;;;;10.63;6.37;;;0.00;63.60;;;0.41;56.77;98969.22;5023088;28;20050;-39
2021/03/06 08:11:42;;;;;;;9.73;5.13;;;0.10;63.70;;;0.46;56.53;98967.28;5023932;28;20052;-39
2021/03/06 08:14:35;;;;;;;10.13;4.67;;;0.10;63.30;;;0.51;56.63;98976.66;5023655;28;20050;-39
2021/03/06 08:17:03;;;;;;;6.37;4.17;;;0.20;63.00;;;0.54;55.90;98973.91;5024109;28;20052;-40
2021/03/06 08:19:32;;;;;;;9.97;4.67;;;0.20;63.30;;;0.59;56.15;98966.69;5023090;28;20221;-40
2021/03/06 08:22:14;;;;;;;5.93;4.17;;;0.30;63.30;;;0.66;56.53;98961.16;5024124;28;20068;-37
2021/03/06 08:24:42;;;;;;;8.37;4.87;;;0.40;62.80;;;0.71;55.84;98964.44;5024024;28;20373;-39
2021/03/06 08:27:09;;;;;;;8.20;4.90;;;0.40;63.10;;;0.74;56.05;98966.94;5023596;28;20046;-39
2021/03/06 08:29:51;;;;;;;11.13;4.43;;;0.40;62.90;;;0.78;56.30;98966.72;5023918;28;20236;-38
2021/03/06 08:32:28;;;;;;;;;;;0.50;62.70;;;0.83;55.88;98971.75;5024224;28;20048;-39
2021/03/06 08:35:19;;;;;;;9.50;4.00;;;0.60;60.70;;;0.90;55.23;98969.72;5035208;28;19923;-37
2021/03/06 08:37:48;;;;;;;6.13;3.50;;;0.60;61.70;;;0.93;56.12;98975.69;5042774;28;20049;-38
2021/03/06 08:40:19;;;;;;;5.87;3.90;;;0.60;61.70;;;0.96;55.54;98972.91;5043163;28;20051;-38
2021/03/06 08:42:55;;;;;;;6.37;4.07;;;0.70;62.00;;;1.02;55.95;98977.03;5042591;28;20045;-39
2021/03/06 08:45:29;;;;;;;6.27;3.83;;;0.80;61.70;;;1.07;55.11;98972.44;5042952;28;20041;-38
2021/03/06 08:48:01;;;;;;;6.63;4.50;;;0.80;61.70;;;1.13;55.49;98987.06;5043018;28;20044;-39
2021/03/06 08:50:33;;;;;;;6.57;4.37;;;0.90;61.80;;;1.18;55.14;98974.56;5043200;28;20230;-39
2021/03/06 08:53:11;;;;;;;13.10;4.07;;;1.00;61.10;;;1.24;55.24;98969.06;5041781;28;20079;-39
2021/03/06 08:55:41;;;;;;;8.30;4.40;;;1.10;61.20;;;1.31;55.86;98969.63;5043102;28;20045;-39
2021/03/06 08:58:14;;;;;;;4.87;3.70;;;1.10;61.60;;;1.37;54.88;98977.22;5042657;28;20057;-39
2021/03/06 09:00:48;;;;;;;5.57;4.00;;;1.10;61.20;;;1.42;55.04;98972.59;5041940;28;20052;-39
2021/03/06 09:03:22;;;;;;;7.10;4.10;;;1.20;61.30;;;1.46;54.05;98973.31;5020508;28;20052;-38
2021/03/06 09:05:58;;;;;;;6.72;4.22;;;1.30;60.40;;;1.52;54.64;98981.75;5019839;28;20061;-39
2021/03/06 09:08:32;;;;;;;7.13;4.50;;;1.30;61.00;;;1.56;54.66;98970.19;5004931;28;20042;-39
2021/03/06 09:11:07;;;;;;;5.47;4.00;;;1.40;60.50;;;1.63;55.49;98968.13;5028150;28;20056;-38
2021/03/06 09:13:41;;;;;;;7.30;3.83;;;1.50;60.60;;;1.68;53.63;98966.13;5021829;28;20056;-38
2021/03/06 09:16:12;;;;;;;9.20;3.77;;;1.60;60.20;;;1.71;54.65;98965.13;5001902;28;20228;-38
2021/03/06 09:18:54;;;;;;;6.40;3.70;;;1.60;60.00;;;1.76;54.49;98971.88;5021307;28;20065;-38
2021/03/06 09:21:25;;;;;;;6.20;3.73;;;1.60;60.20;;;1.83;54.67;98968.94;5022426;28;20598;-38
2021/03/06 09:23:54;;;;;;;6.97;3.70;;;1.70;60.40;;;1.86;53.74;98974.91;5018255;28;20140;-39
2021/03/06 09:26:26;;;;;;;8.90;4.50;;;1.80;60.00;;;1.94;54.21;98969.28;5003183;28;20351;-39
2021/03/06 09:28:58;;;;;;;6.53;3.50;;;1.80;60.40;;;2.00;54.18;98957.59;5004954;28;20054;-39
2021/03/06 09:31:30;;;;;;;7.77;3.87;;;1.90;59.80;;;2.04;53.39;98957.41;5003792;28;20056;-39
2021/03/06 09:33:59;;;;;;;10.07;4.13;;;1.90;59.60;;;2.09;53.90;98955.38;5019682;28;20076;-38
2021/03/06 09:36:32;;;;;;;5.30;3.57;;;2.00;59.90;;;2.15;54.67;98949.84;5021799;28;20056;-38
2021/03/06 09:39:04;;;;;;;5.50;3.70;;;2.10;59.90;;;2.21;53.59;98960.94;5021697;28;20345;-38
2021/03/06 09:41:38;;;;;;;6.80;3.90;;;2.10;59.70;;;2.25;53.88;98960.75;5021060;28;20049;-38
2021/03/06 09:44:09;;;;;;;5.97;3.30;;;2.20;58.60;;;2.30;52.27;98957.88;5004318;28;20064;-38
2021/03/06 09:46:38;;;;;;;4.77;3.73;;;2.30;58.00;;;2.37;53.30;98956.63;5020776;28;20239;-38
2021/03/06 09:49:10;;;;;;;5.97;3.50;;;2.30;58.90;;;2.43;53.38;98948.44;5020286;28;20057;-39
2021/03/06 09:51:44;;;;;;;9.53;3.80;;;2.40;58.10;;;2.47;53.33;98949.97;5003388;28;20045;-38
2021/03/06 09:54:17;;;;;;;9.13;4.03;;;2.40;57.70;;;2.51;52.98;98954.16;5020745;28;20287;-39
2021/03/06 09:56:48;;;;;;;5.35;3.88;;;2.50;58.40;;;2.56;53.52;98946.03;4999509;28;20049;-38
2021/03/06 09:59:16;;;;;;;7.80;3.73;;;2.50;58.50;;;2.60;52.27;98950.22;5019169;28;20054;-39
2021/03/06 10:01:44;;;;;;;6.97;3.93;;;2.60;57.40;;;2.65;53.13;98942.91;5020633;28;20080;-39
2021/03/06 10:04:24;;;;;;;7.53;4.07;;;2.60;58.00;;;2.70;52.82;98951.41;5019783;28;20069;-39
2021/03/06 10:06:54;;;;;;;8.33;4.17;;;2.70;56.90;;;2.76;52.82;98945.00;5017359;28;20091;-39
2021/03/06 10:09:23;;;;;;;7.37;3.87;;;2.70;57.40;;;2.80;53.17;98945.69;4998135;28;20070;-39
2021/03/06 10:12:01;;;;;;;5.63;3.80;;;2.70;58.10;;;2.85;52.10;98941.00;5001971;28;20056;-39
2021/03/06 10:14:29;;;;;;;9.73;5.20;;;2.80;56.80;;;2.88;51.63;98952.22;4984633;28;20057;-40
2021/03/06 10:17:03;;;;;;;8.17;4.23;;;2.90;56.50;;;2.91;52.23;98946.81;5019216;28;20290;-39
2021/03/06 10:19:44;;;;;;;7.07;4.00;;;2.90;56.20;;;2.97;51.74;98948.28;5024213;28;20225;-39
2021/03/06 10:22:14;;;;;;;6.43;3.80;;;3.00;57.00;;;3.02;52.55;98942.75;5020010;28;20046;-39
2021/03/06 10:25:06;;;;;;;5.43;3.70;;;3.00;57.40;;;3.08;51.35;98943.28;5022894;28;20045;-39
2021/03/06 10:27:45;;;;;;;9.07;4.57;;;3.00;54.70;;;3.12;52.15;98943.94;5019248;28;20057;-39
2021/03/06 10:30:20;;;;;;;7.83;4.40;;;3.10;56.70;;;3.18;50.57;98934.88;5024421;28;20044;-39
2021/03/06 10:33:03;;;;;;;10.17;4.97;;;3.10;56.30;;;3.24;51.75;98942.44;5024161;28;20347;-39
2021/03/06 10:35:44;;;;;;;7.23;4.20;;;3.20;56.60;;;3.28;50.84;98936.94;5020652;28;20343;-39
2021/03/06 10:38:31;;;;;;;4.20;3.80;;;3.30;56.20;;;3.30;47.81;98931.59;5023268;28;20243;-39
2021/03/06 10:41:04;;;;;;;4.20;3.60;;;3.30;55.60;;;3.34;50.39;98936.59;5025390;28;20037;-40
2021/03/06 10:43:34;;;;;;;5.55;3.92;;;3.30;55.20;;;3.38;50.41;98934.66;5024411;28;20050;-40
2021/03/06 10:46:20;;;;;;;7.90;4.00;;;3.40;55.00;;;3.44;50.99;98934.31;5024368;28;20045;-40
2021/03/06 10:48:56;;;;;;;6.13;3.50;;;3.40;54.40;;;3.49;50.66;98934.03;5024968;28;20048;-40